Time;durP1;ratioP1;P1;durP2;ratioP2;P2;SDS_P1;SDS_P2;PMS_P1;PMS_P2;Temp;Humidity;BMP_temperature;BMP_pressure;BME280_temperature;BME280_humidity;BME280_pressure;Samples;Min_cycle;Max_cycle;Signal;HPM_P1;HPM_P2
2022/03/10 00:01:03;;;;;;;18.50;12.82;;;;;;;;;;5042199;28;20044;-71
2022/03/10 00:03:31;;;;;;;16.10;11.02;;;;;;;;;;5042698;28;20542;-71
2022/03/10 00:05:58;;;;;;;12.75;7.85;;;;;;;;;;5041403;28;20073;-71
2022/03/10 00:08:26;;;;;;;10.38;7.15;;;;;;;;;;5025202;28;20072;-71
2022/03/10 00:10:53;;;;;;;10.73;7.72;;;;;;;;;;5039559;28;20397;-70
2022/03/10 00:13:21;;;;;;;9.82;7.10;;;;;;;;;;5027767;28;20220;-71
2022/03/10 00:15:48;;;;;;;11.48;7.40;;;;;;;;;;5021361;28;20041;-71
2022/03/10 00:18:16;;;;;;;11.45;7.68;;;;;;;;;;5022837;28;20049;-71
2022/03/10 00:20:44;;;;;;;11.65;8.18;;;;;;;;;;5033877;28;20046;-69
2022/03/10 00:23:11;;;;;;;12.65;9.27;;;;;;;;;;5028948;28;20229;-70
2022/03/10 00:25:38;;;;;;;18.15;12.48;;;;;;;;;;5043599;28;20076;-70
2022/03/10 00:28:06;;;;;;;21.98;13.45;;;;;;;;;;5027467;28;20647;-70
2022/03/10 00:30:33;;;;;;;16.27;10.15;;;;;;;;;;5034771;28;20040;-70
2022/03/10 00:33:00;;;;;;;12.10;8.15;;;;;;;;;;5026789;28;20049;-70
2022/03/10 00:35:29;;;;;;;11.27;7.43;;;;;;;;;;5024621;28;20050;-70
2022/03/10 00:37:57;;;;;;;13.13;7.93;;;;;;;;;;5030223;28;20418;-70
2022/03/10 00:40:25;;;;;;;10.82;8.02;;;;;;;;;;5032459;28;20041;-70
2022/03/10 00:42:52;;;;;;;10.57;7.40;;;;;;;;;;5026839;28;20045;-70
2022/03/10 00:45:20;;;;;;;10.98;7.88;;;;;;;;;;5031597;28;20041;-70
2022/03/10 00:47:51;;;;;;;10.25;7.38;;;;;;;;;;5031635;28;20045;-70
2022/03/10 00:50:20;;;;;;;9.82;6.85;;;;;;;;;;5038192;28;20065;-70
2022/03/10 00:52:48;;;;;;;11.43;7.63;;;;;;;;;;5050552;28;20494;-70
2022/03/10 00:55:19;;;;;;;8.77;7.15;;;;;;;;;;5037405;28;20045;-71
2022/03/10 00:57:47;;;;;;;9.75;7.00;;;;;;;;;;5053451;28;20128;-71
2022/03/10 01:00:16;;;;;;;13.93;8.15;;;;;;;;;;5056997;28;20088;-70
2022/03/10 01:02:44;;;;;;;11.10;7.65;;;;;;;;;;5045167;28;20157;-70
2022/03/10 01:05:12;;;;;;;11.73;7.60;;;;;;;;;;5037685;28;20037;-71
2022/03/10 01:07:40;;;;;;;10.77;7.43;;;;;;;;;;5033157;28;20058;-71
2022/03/10 01:10:07;;;;;;;11.25;7.10;;;;;;;;;;5044346;28;20040;-71
2022/03/10 01:12:42;;;;;;;12.07;8.43;;;;;;;;;;5044888;28;20102;-71
2022/03/10 01:15:14;;;;;;;12.20;7.68;;;;;;;;;;5033163;28;20091;-70
2022/03/10 01:17:41;;;;;;;10.13;6.28;;;;;;;;;;5033267;28;20047;-70
2022/03/10 01:20:09;;;;;;;10.43;7.10;;;;;;;;;;5027258;28;20045;-70
2022/03/10 01:22:36;;;;;;;9.20;6.38;;;;;;;;;;5046262;28;20084;-69
2022/03/10 01:25:04;;;;;;;10.57;7.50;;;;;;;;;;5048070;28;20043;-70
2022/03/10 01:27:32;;;;;;;9.50;7.20;;;;;;;;;;5050146;28;20899;-70
2022/03/10 01:30:00;;;;;;;10.32;7.05;;;;;;;;;;5049467;28;20140;-70
2022/03/10 01:32:27;;;;;;;8.65;6.75;;;;;;;;;;5038757;28;20124;-70
2022/03/10 01:34:55;;;;;;;9.30;7.07;;;;;;;;;;5030185;28;20076;-70
2022/03/10 01:37:22;;;;;;;12.52;7.47;;;;;;;;;;5029805;28;20060;-70
2022/03/10 01:39:49;;;;;;;12.13;8.40;;;;;;;;;;5045296;28;20079;-70
2022/03/10 01:42:18;;;;;;;10.93;7.32;;;;;;;;;;5050791;28;20071;-70
2022/03/10 01:44:45;;;;;;;11.52;7.22;;;;;;;;;;5057735;28;20083;-70
2022/03/10 01:47:12;;;;;;;9.45;7.05;;;;;;;;;;5049233;28;20048;-70
2022/03/10 01:49:40;;;;;;;9.05;6.20;;;;;;;;;;5038589;28;20129;-71
2022/03/10 01:52:07;;;;;;;11.35;7.03;;;;;;;;;;5031557;28;20076;-71
2022/03/10 01:54:35;;;;;;;9.57;6.70;;;;;;;;;;5029158;28;20072;-71
2022/03/10 01:57:03;;;;;;;10.77;7.57;;;;;;;;;;5030053;28;20046;-70
2022/03/10 01:59:31;;;;;;;10.90;6.85;;;;;;;;;;5033299;28;20132;-70
2022/03/10 02:01:58;;;;;;;9.23;6.85;;;;;;;;;;5036822;28;20083;-70
2022/03/10 02:04:26;;;;;;;8.75;6.80;;;;;;;;;;5029325;28;20042;-71
2022/03/10 02:06:56;;;;;;;10.52;7.60;;;;;;;;;;5030250;28;20033;-70
2022/03/10 02:12:11;;;;;;;10.68;7.00;;;;;;;;;;5030400;28;20304;-71
2022/03/10 02:17:26;;;;;;;10.52;6.28;;;;;;;;;;5029185;28;20053;-71
2022/03/10 02:19:55;;;;;;;7.95;6.20;;;;;;;;;;5012486;28;20148;-70
2022/03/10 02:22:23;;;;;;;12.38;6.80;;;;;;;;;;5030414;28;20052;-70
2022/03/10 02:24:51;;;;;;;12.35;8.02;;;;;;;;;;5029036;28;20045;-70
2022/03/10 02:27:26;;;;;;;11.00;7.07;;;;;;;;;;5012545;28;20456;-70
2022/03/10 02:29:55;;;;;;;9.32;6.55;;;;;;;;;;5030128;28;20040;-70
2022/03/10 02:32:22;;;;;;;9.82;7.07;;;;;;;;;;5048201;28;20037;-70
2022/03/10 02:34:50;;;;;;;9.68;6.90;;;;;;;;;;5031536;28;20136;-70
2022/03/10 02:37:19;;;;;;;8.50;6.72;;;;;;;;;;5031133;28;20101;-70
2022/03/10 02:39:47;;;;;;;11.73;6.22;;;;;;;;;;5031716;28;20106;-70
2022/03/10 02:42:14;;;;;;;10.02;6.97;;;;;;;;;;5050072;28;20060;-70
2022/03/10 02:44:42;;;;;;;11.65;7.50;;;;;;;;;;5031373;28;20502;-70
2022/03/10 02:47:10;;;;;;;11.52;7.68;;;;;;;;;;5049260;28;20044;-70
2022/03/10 02:49:38;;;;;;;9.45;7.00;;;;;;;;;;5049574;28;20037;-70
2022/03/10 02:52:06;;;;;;;7.53;5.85;;;;;;;;;;5049074;28;20048;-70
2022/03/10 02:54:41;;;;;;;8.80;6.53;;;;;;;;;;5048290;28;20045;-71
2022/03/10 02:57:08;;;;;;;8.07;5.78;;;;;;;;;;5049169;28;20045;-70
2022/03/10 02:59:35;;;;;;;8.25;6.75;;;;;;;;;;5050028;28;20055;-71
2022/03/10 03:02:04;;;;;;;8.82;6.43;;;;;;;;;;5042290;28;20084;-71
2022/03/10 03:04:31;;;;;;;8.73;5.85;;;;;;;;;;5027483;28;20051;-70
2022/03/10 03:06:59;;;;;;;7.97;6.28;;;;;;;;;;5029599;28;20495;-70
2022/03/10 03:09:26;;;;;;;7.63;5.88;;;;;;;;;;5028574;28;20072;-70
2022/03/10 03:11:54;;;;;;;7.13;6.32;;;;;;;;;;5028787;28;20038;-70
2022/03/10 03:14:22;;;;;;;11.23;7.40;;;;;;;;;;5028980;28;20606;-70
2022/03/10 03:16:51;;;;;;;7.25;5.75;;;;;;;;;;5029641;28;20139;-70
2022/03/10 03:19:19;;;;;;;8.38;7.10;;;;;;;;;;5029559;28;20045;-70
2022/03/10 03:21:46;;;;;;;10.85;6.80;;;;;;;;;;5029377;28;20415;-70
2022/03/10 03:24:14;;;;;;;8.95;7.28;;;;;;;;;;5026335;28;20053;-69
2022/03/10 03:26:41;;;;;;;8.95;6.78;;;;;;;;;;5029291;28;20079;-70
2022/03/10 03:29:10;;;;;;;8.55;6.60;;;;;;;;;;5028144;28;20045;-70
2022/03/10 03:31:38;;;;;;;8.77;6.70;;;;;;;;;;5023941;28;20037;-70
2022/03/10 03:34:10;;;;;;;9.68;6.55;;;;;;;;;;5048395;28;20075;-71
2022/03/10 03:36:41;;;;;;;8.38;5.82;;;;;;;;;;5126264;22;20583;-72
2022/03/10 03:39:09;;;;;;;8.77;6.05;;;;;;;;;;5044840;28;20057;-73
2022/03/10 03:41:36;;;;;;;6.53;5.55;;;;;;;;;;5045500;28;20051;-73
2022/03/10 03:44:04;;;;;;;10.40;6.80;;;;;;;;;;5031731;28;20044;-73
2022/03/10 03:46:31;;;;;;;7.57;5.80;;;;;;;;;;5051775;28;20045;-73
2022/03/10 03:49:04;;;;;;;10.20;6.40;;;;;;;;;;5048880;28;20406;-73
2022/03/10 03:51:31;;;;;;;7.63;6.25;;;;;;;;;;5048710;28;20044;-72
2022/03/10 03:53:59;;;;;;;7.30;6.28;;;;;;;;;;5049086;28;20051;-73
2022/03/10 03:56:27;;;;;;;11.90;7.88;;;;;;;;;;5034839;28;20049;-73
2022/03/10 03:58:54;;;;;;;11.38;7.85;;;;;;;;;;5012816;28;20041;-73
2022/03/10 04:01:22;;;;;;;9.25;6.68;;;;;;;;;;5038285;28;20045;-72
2022/03/10 04:03:50;;;;;;;9.20;6.95;;;;;;;;;;5044894;28;20044;-74
2022/03/10 04:06:18;;;;;;;9.15;6.78;;;;;;;;;;5041468;28;20043;-72
2022/03/10 04:08:45;;;;;;;10.63;6.78;;;;;;;;;;5047323;28;20469;-73
2022/03/10 04:11:15;;;;;;;9.05;6.40;;;;;;;;;;5047217;28;20123;-73
2022/03/10 04:13:43;;;;;;;9.07;5.93;;;;;;;;;;5047327;28;20063;-73
2022/03/10 04:16:10;;;;;;;9.57;6.70;;;;;;;;;;5037390;28;20037;-73
2022/03/10 04:18:38;;;;;;;8.45;5.95;;;;;;;;;;5010471;28;20065;-73
2022/03/10 04:21:06;;;;;;;9.23;6.43;;;;;;;;;;5022040;28;20052;-73
2022/03/10 04:23:33;;;;;;;10.68;7.22;;;;;;;;;;5047421;28;20367;-73
2022/03/10 04:26:01;;;;;;;10.73;6.50;;;;;;;;;;5036056;28;20125;-73
2022/03/10 04:28:28;;;;;;;9.95;7.03;;;;;;;;;;5028143;28;20518;-73
2022/03/10 04:30:56;;;;;;;11.48;7.47;;;;;;;;;;5027119;28;20061;-73
2022/03/10 04:33:23;;;;;;;10.93;6.95;;;;;;;;;;5027949;28;20033;-73
2022/03/10 04:35:51;;;;;;;11.30;8.05;;;;;;;;;;5026875;28;20148;-72
2022/03/10 04:38:19;;;;;;;11.32;7.72;;;;;;;;;;5026133;28;20148;-73
2022/03/10 04:40:47;;;;;;;11.18;7.25;;;;;;;;;;5035499;28;20588;-72
2022/03/10 04:43:15;;;;;;;11.95;7.53;;;;;;;;;;5047731;28;20564;-73
2022/03/10 04:45:42;;;;;;;12.00;8.30;;;;;;;;;;5040845;28;20124;-73
2022/03/10 04:48:10;;;;;;;11.30;7.82;;;;;;;;;;5027543;28;20144;-73
2022/03/10 04:50:37;;;;;;;13.23;7.47;;;;;;;;;;5029820;28;20037;-73
2022/03/10 04:53:05;;;;;;;11.23;8.00;;;;;;;;;;5029547;28;20112;-73
2022/03/10 04:55:32;;;;;;;14.63;8.70;;;;;;;;;;5045165;28;20041;-73
2022/03/10 04:58:00;;;;;;;17.05;8.82;;;;;;;;;;5029506;28;20487;-74
2022/03/10 05:00:29;;;;;;;14.98;7.75;;;;;;;;;;5045884;28;20406;-74
2022/03/10 05:02:57;;;;;;;11.00;7.05;;;;;;;;;;5014247;28;20658;-73
2022/03/10 05:05:25;;;;;;;12.18;7.65;;;;;;;;;;5026413;28;20124;-74
2022/03/10 05:07:52;;;;;;;11.30;8.20;;;;;;;;;;5027010;28;20044;-74
2022/03/10 05:10:19;;;;;;;9.65;7.43;;;;;;;;;;5030105;28;20678;-74
2022/03/10 05:12:51;;;;;;;11.50;7.55;;;;;;;;;;5048905;28;20041;-74
2022/03/10 05:15:19;;;;;;;13.40;7.90;;;;;;;;;;5029813;28;20040;-74
2022/03/10 05:17:47;;;;;;;11.77;8.57;;;;;;;;;;5050033;28;20052;-74
2022/03/10 05:20:15;;;;;;;10.45;6.82;;;;;;;;;;5022408;28;20514;-74
2022/03/10 05:22:43;;;;;;;11.15;6.70;;;;;;;;;;5049184;28;20048;-73
2022/03/10 05:25:11;;;;;;;11.57;6.85;;;;;;;;;;5045364;28;20039;-74
2022/03/10 05:27:38;;;;;;;12.50;8.43;;;;;;;;;;5012180;28;20041;-74
2022/03/10 05:30:06;;;;;;;11.43;8.35;;;;;;;;;;5042844;28;20033;-71
2022/03/10 05:32:34;;;;;;;13.70;9.23;;;;;;;;;;5026258;28;20064;-74
2022/03/10 05:35:03;;;;;;;8.80;6.72;;;;;;;;;;5048091;28;20069;-72
2022/03/10 05:37:30;;;;;;;12.68;8.98;;;;;;;;;;5031925;28;20037;-71
2022/03/10 05:39:58;;;;;;;12.43;8.27;;;;;;;;;;5044465;28;20045;-72
2022/03/10 05:42:25;;;;;;;13.90;8.30;;;;;;;;;;5047655;28;20107;-72
2022/03/10 05:44:53;;;;;;;15.63;9.25;;;;;;;;;;5029750;28;20045;-72
2022/03/10 05:47:20;;;;;;;13.10;8.60;;;;;;;;;;5029496;28;20119;-72
2022/03/10 05:49:49;;;;;;;13.70;9.35;;;;;;;;;;5009455;28;20314;-72
2022/03/10 05:52:16;;;;;;;13.23;7.85;;;;;;;;;;5026929;28;20034;-73
2022/03/10 05:54:45;;;;;;;13.63;8.05;;;;;;;;;;5036339;28;20045;-73
2022/03/10 05:57:13;;;;;;;12.30;8.13;;;;;;;;;;5025159;28;20061;-73
2022/03/10 05:59:40;;;;;;;14.00;9.20;;;;;;;;;;5039756;28;20103;-72
2022/03/10 06:02:08;;;;;;;20.13;10.00;;;;;;;;;;5046471;28;20036;-74
2022/03/10 06:04:35;;;;;;;12.50;7.50;;;;;;;;;;5040044;28;20051;-73
2022/03/10 06:07:03;;;;;;;14.75;9.57;;;;;;;;;;5048761;28;20039;-73
2022/03/10 06:09:30;;;;;;;13.23;8.30;;;;;;;;;;5021222;28;20048;-74
2022/03/10 06:11:58;;;;;;;14.40;9.07;;;;;;;;;;5020562;28;20047;-72
2022/03/10 06:14:26;;;;;;;14.27;10.15;;;;;;;;;;5035383;28;20072;-73
2022/03/10 06:16:54;;;;;;;17.58;10.60;;;;;;;;;;5038222;28;20041;-73
2022/03/10 06:19:21;;;;;;;13.57;9.40;;;;;;;;;;5037637;28;20080;-73
2022/03/10 06:21:51;;;;;;;16.13;9.95;;;;;;;;;;5035447;28;20529;-73
2022/03/10 06:24:18;;;;;;;15.57;10.07;;;;;;;;;;5037498;28;20053;-72
2022/03/10 06:26:45;;;;;;;12.38;8.75;;;;;;;;;;5023034;28;20042;-73
2022/03/10 06:29:13;;;;;;;14.60;9.98;;;;;;;;;;5049750;28;20055;-73
2022/03/10 06:31:41;;;;;;;16.95;10.60;;;;;;;;;;5049464;28;20056;-72
2022/03/10 06:34:10;;;;;;;16.80;9.55;;;;;;;;;;5028203;28;20047;-72
2022/03/10 06:36:38;;;;;;;16.95;9.55;;;;;;;;;;5018400;28;20740;-73
2022/03/10 06:39:06;;;;;;;14.43;10.05;;;;;;;;;;5037312;28;20470;-73
2022/03/10 06:41:33;;;;;;;16.40;10.27;;;;;;;;;;5027408;28;20049;-72
2022/03/10 06:44:00;;;;;;;16.25;9.70;;;;;;;;;;5031427;28;20042;-73
2022/03/10 06:46:28;;;;;;;15.30;9.75;;;;;;;;;;5033608;28;20556;-72
2022/03/10 06:48:55;;;;;;;12.85;8.15;;;;;;;;;;5033958;28;20041;-73
2022/03/10 06:51:23;;;;;;;17.08;9.93;;;;;;;;;;5035369;28;20072;-73
2022/03/10 06:53:51;;;;;;;12.25;9.32;;;;;;;;;;5022799;28;20064;-72
2022/03/10 06:56:25;;;;;;;14.18;9.27;;;;;;;;;;5024151;28;20072;-72
2022/03/10 06:58:52;;;;;;;13.60;8.85;;;;;;;;;;5022169;28;20043;-73
2022/03/10 07:01:20;;;;;;;18.98;13.32;;;;;;;;;;5022652;28;20103;-72
2022/03/10 07:03:48;;;;;;;40.00;22.65;;;;;;;;;;5036218;28;20037;-73
2022/03/10 07:06:15;;;;;;;19.45;10.50;;;;;;;;;;5017348;28;20041;-73
2022/03/10 07:08:42;;;;;;;15.10;9.73;;;;;;;;;;5021802;28;20656;-72
2022/03/10 07:11:10;;;;;;;17.48;10.55;;;;;;;;;;5016674;28;20047;-71
2022/03/10 07:13:37;;;;;;;16.05;9.23;;;;;;;;;;5039128;28;20144;-72
2022/03/10 07:16:05;;;;;;;12.98;9.45;;;;;;;;;;5023628;28;20048;-72
2022/03/10 07:18:33;;;;;;;13.23;11.23;;;;;;;;;;5042236;28;20045;-72
2022/03/10 07:21:00;;;;;;;16.98;12.32;;;;;;;;;;5039898;28;20522;-71
2022/03/10 07:23:27;;;;;;;14.75;12.18;;;;;;;;;;5045369;28;20041;-72
2022/03/10 07:25:55;;;;;;;13.15;10.25;;;;;;;;;;5030181;28;20332;-72
2022/03/10 07:28:22;;;;;;;13.85;11.35;;;;;;;;;;5023648;28;20556;-71
2022/03/10 07:30:50;;;;;;;9.15;8.00;;;;;;;;;;5045693;28;20029;-71
2022/03/10 07:33:17;;;;;;;15.40;10.15;;;;;;;;;;5048224;28;20044;-71
2022/03/10 07:35:45;;;;;;;19.08;11.63;;;;;;;;;;5014389;28;20037;-71
2022/03/10 07:38:12;;;;;;;14.27;9.20;;;;;;;;;;5048048;28;20045;-72
2022/03/10 07:40:40;;;;;;;12.43;8.45;;;;;;;;;;5048760;28;20060;-71
2022/03/10 07:43:08;;;;;;;13.88;8.88;;;;;;;;;;5048836;28;20510;-71
2022/03/10 07:45:35;;;;;;;15.00;9.15;;;;;;;;;;5006362;28;20044;-71
2022/03/10 07:48:02;;;;;;;11.60;8.70;;;;;;;;;;5029304;28;20124;-73
2022/03/10 07:50:30;;;;;;;15.95;9.75;;;;;;;;;;5047789;28;20040;-71
2022/03/10 07:52:57;;;;;;;13.70;9.95;;;;;;;;;;5046561;28;20495;-72
2022/03/10 07:55:25;;;;;;;20.15;9.38;;;;;;;;;;5012421;28;20049;-72
2022/03/10 07:57:52;;;;;;;12.25;9.57;;;;;;;;;;5028551;28;20038;-71
2022/03/10 08:00:20;;;;;;;13.82;8.90;;;;;;;;;;5027356;28;20509;-71
2022/03/10 08:02:47;;;;;;;14.13;9.10;;;;;;;;;;5029006;28;20039;-72
2022/03/10 08:05:15;;;;;;;14.40;9.20;;;;;;;;;;5027714;28;20124;-72
2022/03/10 08:07:43;;;;;;;12.77;9.57;;;;;;;;;;5028778;28;20124;-72
2022/03/10 08:10:11;;;;;;;14.80;9.45;;;;;;;;;;5028271;28;20518;-74
2022/03/10 08:12:38;;;;;;;12.55;9.10;;;;;;;;;;5010567;28;20077;-73
2022/03/10 08:15:09;;;;;;;15.38;9.20;;;;;;;;;;5027115;28;20204;-73
2022/03/10 08:17:37;;;;;;;12.05;9.43;;;;;;;;;;5028347;28;20045;-74
2022/03/10 08:20:05;;;;;;;14.98;9.02;;;;;;;;;;5028178;28;20434;-73
2022/03/10 08:22:32;;;;;;;10.75;8.77;;;;;;;;;;5038835;28;20045;-73
2022/03/10 08:25:00;;;;;;;9.93;7.93;;;;;;;;;;5013698;28;20110;-73
2022/03/10 08:27:27;;;;;;;10.95;8.52;;;;;;;;;;5027011;28;20033;-73
2022/03/10 08:29:55;;;;;;;11.20;7.88;;;;;;;;;;5028726;28;20045;-72
2022/03/10 08:32:25;;;;;;;11.48;8.55;;;;;;;;;;5042290;28;20038;-72
2022/03/10 08:34:52;;;;;;;10.88;7.80;;;;;;;;;;5027083;28;20043;-72
2022/03/10 08:37:19;;;;;;;11.27;8.80;;;;;;;;;;5028323;28;20052;-72
2022/03/10 08:39:47;;;;;;;12.23;8.77;;;;;;;;;;5026959;28;20358;-72
2022/03/10 08:42:16;;;;;;;11.88;8.70;;;;;;;;;;5027357;28;20048;-74
2022/03/10 08:44:44;;;;;;;15.20;8.95;;;;;;;;;;5027535;28;20350;-74
2022/03/10 08:47:17;;;;;;;15.35;8.68;;;;;;;;;;5045068;28;20037;-73
2022/03/10 08:49:44;;;;;;;7.95;7.15;;;;;;;;;;5031715;28;20045;-74
2022/03/10 08:52:12;;;;;;;9.52;7.45;;;;;;;;;;5030853;28;20099;-74
2022/03/10 08:54:39;;;;;;;10.55;8.07;;;;;;;;;;5031772;28;20046;-74
2022/03/10 08:57:07;;;;;;;12.23;8.18;;;;;;;;;;5035157;28;20041;-75
2022/03/10 08:59:34;;;;;;;12.15;7.65;;;;;;;;;;5052477;28;20045;-73
2022/03/10 09:02:02;;;;;;;9.00;7.78;;;;;;;;;;5039306;28;20087;-74
2022/03/10 09:04:29;;;;;;;11.50;7.95;;;;;;;;;;5020434;28;20041;-73
2022/03/10 09:06:57;;;;;;;13.20;8.45;;;;;;;;;;5050838;28;20059;-70
2022/03/10 09:09:25;;;;;;;9.18;7.50;;;;;;;;;;5051122;28;20045;-71
2022/03/10 09:11:52;;;;;;;8.15;6.70;;;;;;;;;;5032990;28;20037;-72
2022/03/10 09:14:19;;;;;;;7.65;6.85;;;;;;;;;;5041420;28;20064;-72
2022/03/10 09:16:47;;;;;;;12.88;6.75;;;;;;;;;;5030970;28;20051;-73
2022/03/10 09:19:14;;;;;;;9.70;7.47;;;;;;;;;;5012831;28;20072;-72
2022/03/10 09:21:42;;;;;;;10.07;7.20;;;;;;;;;;5031498;28;20072;-73
2022/03/10 09:24:10;;;;;;;13.13;7.35;;;;;;;;;;5030806;28;20045;-72
2022/03/10 09:26:40;;;;;;;9.98;7.32;;;;;;;;;;5031296;28;20042;-73
2022/03/10 09:29:08;;;;;;;11.52;7.50;;;;;;;;;;5030257;28;20046;-73
2022/03/10 09:31:35;;;;;;;6.93;6.22;;;;;;;;;;5037091;28;20068;-73
2022/03/10 09:34:04;;;;;;;6.15;5.55;;;;;;;;;;5037495;28;20430;-71
2022/03/10 09:36:32;;;;;;;7.28;5.55;;;;;;;;;;5027132;28;20060;-72
2022/03/10 09:39:00;;;;;;;6.35;4.68;;;;;;;;;;5073251;22;20048;-73
2022/03/10 09:41:28;;;;;;;5.47;4.40;;;;;;;;;;5061295;28;20134;-75
2022/03/10 09:43:56;;;;;;;4.88;4.47;;;;;;;;;;5058038;28;20123;-72
2022/03/10 09:46:24;;;;;;;6.13;5.00;;;;;;;;;;5021395;28;20407;-73
2022/03/10 09:48:52;;;;;;;7.43;5.00;;;;;;;;;;5035922;28;20124;-73
2022/03/10 09:51:23;;;;;;;5.63;5.07;;;;;;;;;;5043155;28;20513;-72
2022/03/10 09:53:50;;;;;;;8.07;4.50;;;;;;;;;;5035649;28;20049;-73
2022/03/10 09:56:20;;;;;;;6.32;4.93;;;;;;;;;;5032362;28;20436;-73
2022/03/10 09:58:47;;;;;;;5.65;4.80;;;;;;;;;;5043312;28;20059;-74
2022/03/10 10:01:15;;;;;;;4.80;4.40;;;;;;;;;;5032646;28;20042;-73
2022/03/10 10:03:42;;;;;;;4.85;4.35;;;;;;;;;;5034934;28;20042;-72
2022/03/10 10:06:10;;;;;;;4.70;4.22;;;;;;;;;;5035449;28;20106;-75
2022/03/10 10:08:38;;;;;;;4.88;4.38;;;;;;;;;;5036890;28;20533;-73
2022/03/10 10:11:06;;;;;;;4.60;4.10;;;;;;;;;;5045657;28;20298;-72
2022/03/10 10:13:39;;;;;;;5.13;3.90;;;;;;;;;;5039939;28;20768;-72
2022/03/10 10:16:08;;;;;;;4.57;4.10;;;;;;;;;;5024171;28;20138;-73
2022/03/10 10:18:37;;;;;;;4.70;4.18;;;;;;;;;;5032458;28;20037;-71
2022/03/10 10:21:18;;;;;;;4.97;4.35;;;;;;;;;;5047724;28;20033;-72
2022/03/10 10:23:46;;;;;;;5.05;4.10;;;;;;;;;;5034455;28;20128;-73
2022/03/10 10:26:14;;;;;;;7.05;4.38;;;;;;;;;;5028565;28;20065;-74
2022/03/10 10:28:45;;;;;;;;;;;;;;;;;;5032254;28;20084;-72
2022/03/10 10:31:14;;;;;;;4.68;3.28;;;;;;;;;;5050085;28;20016;-71
2022/03/10 10:33:43;;;;;;;7.43;3.95;;;;;;;;;;5049749;28;20045;-72
2022/03/10 10:36:13;;;;;;;3.92;3.55;;;;;;;;;;5049612;28;20311;-75
2022/03/10 10:38:41;;;;;;;5.43;3.75;;;;;;;;;;5049554;28;20071;-73
2022/03/10 10:41:19;;;;;;;4.95;3.90;;;;;;;;;;5048812;28;20056;-72
2022/03/10 10:43:49;;;;;;;4.03;3.50;;;;;;;;;;5048374;28;20044;-74
2022/03/10 10:46:24;;;;;;;5.00;3.75;;;;;;;;;;5030447;28;20044;-74
2022/03/10 10:48:54;;;;;;;5.53;3.90;;;;;;;;;;5045578;28;20030;-74
2022/03/10 10:51:38;;;;;;;4.15;3.70;;;;;;;;;;5011493;28;20045;-73
2022/03/10 10:54:07;;;;;;;4.15;3.75;;;;;;;;;;5045644;28;20041;-73
2022/03/10 10:56:35;;;;;;;4.55;3.50;;;;;;;;;;5047334;28;20045;-73
2022/03/10 10:59:03;;;;;;;3.85;3.45;;;;;;;;;;5048617;28;20037;-73
2022/03/10 11:01:34;;;;;;;5.80;3.50;;;;;;;;;;5031309;28;20347;-74
2022/03/10 11:04:03;;;;;;;4.10;3.33;;;;;;;;;;5027712;28;20037;-72
2022/03/10 11:06:31;;;;;;;4.13;3.72;;;;;;;;;;5027818;28;20042;-72
2022/03/10 11:08:59;;;;;;;3.72;3.33;;;;;;;;;;5021590;28;20045;-73
2022/03/10 11:11:27;;;;;;;3.90;3.50;;;;;;;;;;5046870;28;20583;-74
2022/03/10 11:13:54;;;;;;;4.53;3.38;;;;;;;;;;5044825;28;20383;-75
2022/03/10 11:16:21;;;;;;;4.07;3.60;;;;;;;;;;5024024;28;20053;-75
2022/03/10 11:18:50;;;;;;;4.80;3.70;;;;;;;;;;5042511;28;20039;-74
2022/03/10 11:21:18;;;;;;;4.78;3.10;;;;;;;;;;5026841;28;20044;-73
2022/03/10 11:23:49;;;;;;;4.20;3.25;;;;;;;;;;5024869;28;20530;-73
2022/03/10 11:26:20;;;;;;;3.55;2.83;;;;;;;;;;5027454;28;20041;-74
2022/03/10 11:28:49;;;;;;;3.40;3.08;;;;;;;;;;5037779;28;20041;-72
2022/03/10 11:31:18;;;;;;;4.93;3.00;;;;;;;;;;5046801;28;20656;-71
2022/03/10 11:33:45;;;;;;;3.55;3.10;;;;;;;;;;5030862;28;20037;-73
2022/03/10 11:36:23;;;;;;;4.72;3.47;;;;;;;;;;5028556;28;20053;-72
2022/03/10 11:38:54;;;;;;;3.78;3.10;;;;;;;;;;5034934;28;20582;-74
2022/03/10 11:41:26;;;;;;;3.30;3.00;;;;;;;;;;5045151;28;20502;-73
2022/03/10 11:43:57;;;;;;;10.48;3.65;;;;;;;;;;5028535;28;20033;-73
2022/03/10 11:46:29;;;;;;;3.60;3.20;;;;;;;;;;5039856;28;20038;-74
2022/03/10 11:49:08;;;;;;;4.50;3.40;;;;;;;;;;5028571;28;20080;-73
2022/03/10 11:51:43;;;;;;;4.13;3.08;;;;;;;;;;5030354;28;20290;-73
2022/03/10 11:54:16;;;;;;;3.75;3.38;;;;;;;;;;5040308;28;20092;-74
2022/03/10 11:56:43;;;;;;;3.60;2.70;;;;;;;;;;5043920;28;20041;-74
2022/03/10 11:59:17;;;;;;;4.43;3.00;;;;;;;;;;5030178;28;20053;-76
2022/03/10 12:01:45;;;;;;;3.00;2.70;;;;;;;;;;5028075;28;20034;-72
2022/03/10 12:04:18;;;;;;;3.92;2.83;;;;;;;;;;5042283;28;20037;-74
2022/03/10 12:06:53;;;;;;;2.60;2.40;;;;;;;;;;5040823;28;20034;-73
2022/03/10 12:09:26;;;;;;;4.85;2.70;;;;;;;;;;5027770;28;20136;-74
2022/03/10 12:11:54;;;;;;;;;;;;;;;;;;5033824;28;20044;-72
2022/03/10 12:14:25;;;;;;;3.10;2.63;;;;;;;;;;5047398;28;19960;-72
2022/03/10 12:16:53;;;;;;;3.20;2.70;;;;;;;;;;5040425;28;20124;-73
2022/03/10 12:19:40;;;;;;;5.05;2.88;;;;;;;;;;5044501;28;20041;-73
2022/03/10 12:22:10;;;;;;;2.72;2.40;;;;;;;;;;5028620;28;20049;-73
2022/03/10 12:24:37;;;;;;;3.67;2.15;;;;;;;;;;5041991;28;20040;-75
2022/03/10 12:27:05;;;;;;;3.35;2.00;;;;;;;;;;5041019;28;20064;-74
2022/03/10 12:29:32;;;;;;;4.72;2.90;;;;;;;;;;5014280;28;20073;-76
2022/03/10 12:32:04;;;;;;;4.07;2.95;;;;;;;;;;5026464;28;20576;-74
2022/03/10 12:34:32;;;;;;;2.45;2.25;;;;;;;;;;5009993;28;20046;-74
2022/03/10 12:37:24;;;;;;;6.38;2.30;;;;;;;;;;5030303;28;20037;-75
2022/03/10 12:40:09;;;;;;;2.55;2.20;;;;;;;;;;5029633;28;20060;-73
2022/03/10 12:42:38;;;;;;;2.25;1.98;;;;;;;;;;5036401;28;20038;-74
2022/03/10 12:45:05;;;;;;;1.80;1.33;;;;;;;;;;5012797;28;20033;-73
2022/03/10 12:47:33;;;;;;;2.03;1.80;;;;;;;;;;5027727;28;20038;-73
2022/03/10 12:50:01;;;;;;;2.45;2.25;;;;;;;;;;5034627;28;20068;-75
2022/03/10 12:52:28;;;;;;;1.90;1.80;;;;;;;;;;5038655;28;20575;-76
2022/03/10 12:54:56;;;;;;;4.22;1.90;;;;;;;;;;5010453;28;20034;-71
2022/03/10 12:57:24;;;;;;;2.10;1.90;;;;;;;;;;5027916;28;20483;-72
2022/03/10 12:59:51;;;;;;;1.83;1.73;;;;;;;;;;5028157;28;20048;-74
2022/03/10 13:02:24;;;;;;;1.98;1.70;;;;;;;;;;5028508;28;20061;-74
2022/03/10 13:04:55;;;;;;;1.30;1.20;;;;;;;;;;5026949;28;21205;-74
2022/03/10 13:07:23;;;;;;;2.75;1.90;;;;;;;;;;5031971;28;20041;-74
2022/03/10 13:09:54;;;;;;;2.00;1.90;;;;;;;;;;5028657;28;20035;-72
2022/03/10 13:12:24;;;;;;;2.45;1.83;;;;;;;;;;5042226;28;20129;-71
2022/03/10 13:14:52;;;;;;;1.80;1.70;;;;;;;;;;5028537;28;20499;-75
2022/03/10 13:17:30;;;;;;;2.85;2.08;;;;;;;;;;5035725;28;20076;-74
2022/03/10 13:19:57;;;;;;;2.20;2.00;;;;;;;;;;5042091;28;20500;-73
2022/03/10 13:22:25;;;;;;;1.70;1.60;;;;;;;;;;5034986;28;20133;-72
2022/03/10 13:24:52;;;;;;;1.73;1.63;;;;;;;;;;5042854;28;20037;-75
2022/03/10 13:27:23;;;;;;;1.83;1.60;;;;;;;;;;5022612;28;20046;-74
2022/03/10 13:29:51;;;;;;;2.25;2.08;;;;;;;;;;5016937;28;20557;-74
2022/03/10 13:32:23;;;;;;;2.38;2.15;;;;;;;;;;5044534;28;20080;-74
2022/03/10 13:34:51;;;;;;;2.63;2.40;;;;;;;;;;5050944;28;20059;-74
2022/03/10 13:37:21;;;;;;;2.63;2.42;;;;;;;;;;5050910;28;20068;-75
2022/03/10 13:39:50;;;;;;;5.03;2.85;;;;;;;;;;5050181;28;20132;-74
2022/03/10 13:42:29;;;;;;;4.60;2.92;;;;;;;;;;5051438;28;20128;-74
2022/03/10 13:45:07;;;;;;;2.65;2.38;;;;;;;;;;5042139;28;20127;-73
2022/03/10 13:47:47;;;;;;;5.05;2.90;;;;;;;;;;5034808;28;20137;-73
2022/03/10 13:50:19;;;;;;;2.47;2.28;;;;;;;;;;5030539;28;20468;-72
2022/03/10 13:52:49;;;;;;;8.82;2.60;;;;;;;;;;5033416;28;20037;-73
2022/03/10 13:55:17;;;;;;;3.92;3.35;;;;;;;;;;5041109;28;20120;-72
2022/03/10 13:57:45;;;;;;;3.08;2.70;;;;;;;;;;5047693;28;20045;-72
2022/03/10 14:00:13;;;;;;;3.08;2.80;;;;;;;;;;5049784;28;20069;-72
2022/03/10 14:02:49;;;;;;;7.20;3.08;;;;;;;;;;5029582;28;20049;-73
2022/03/10 14:05:18;;;;;;;3.20;2.70;;;;;;;;;;5043948;28;20056;-72
2022/03/10 14:07:52;;;;;;;2.95;2.65;;;;;;;;;;5049628;28;20037;-74
2022/03/10 14:10:29;;;;;;;4.05;3.40;;;;;;;;;;5048424;28;20045;-75
2022/03/10 14:13:00;;;;;;;3.75;3.22;;;;;;;;;;5049442;28;20040;-72
2022/03/10 14:15:37;;;;;;;3.47;2.85;;;;;;;;;;5047261;28;20121;-75
2022/03/10 14:18:12;;;;;;;3.00;2.70;;;;;;;;;;5044113;28;20064;-72
2022/03/10 14:20:44;;;;;;;3.75;2.95;;;;;;;;;;5029383;28;20518;-73
2022/03/10 14:23:14;;;;;;;4.20;3.20;;;;;;;;;;5011682;28;20080;-72
2022/03/10 14:25:52;;;;;;;5.80;3.50;;;;;;;;;;5028933;28;20049;-73
2022/03/10 14:28:34;;;;;;;3.88;3.47;;;;;;;;;;5029152;28;20045;-73
2022/03/10 14:31:23;;;;;;;2.78;2.25;;;;;;;;;;5037135;28;20457;-73
2022/03/10 14:33:51;;;;;;;3.38;2.38;;;;;;;;;;5034754;28;20122;-74
2022/03/10 14:36:20;;;;;;;3.03;2.63;;;;;;;;;;5010295;28;20053;-72
2022/03/10 14:38:49;;;;;;;4.63;3.17;;;;;;;;;;5011444;28;20045;-72
2022/03/10 14:41:26;;;;;;;3.92;3.13;;;;;;;;;;5016385;28;20073;-72
2022/03/10 14:43:54;;;;;;;3.75;3.33;;;;;;;;;;5010750;28;20041;-73
2022/03/10 14:46:23;;;;;;;3.85;2.85;;;;;;;;;;5009782;28;20042;-74
2022/03/10 14:48:52;;;;;;;4.63;3.00;;;;;;;;;;5010665;28;20117;-73
2022/03/10 14:51:20;;;;;;;3.60;3.00;;;;;;;;;;5008746;28;20691;-73